createdAt,value
2017-11-07T00:02:08.467Z,6.70
2017-11-07T00:04:36.037Z,6.80
2017-11-07T00:07:03.646Z,6.70
2017-11-07T00:09:31.205Z,6.70
2017-11-07T00:11:58.758Z,6.70
2017-11-07T00:14:27.115Z,6.70
2017-11-07T00:16:55.434Z,6.60
2017-11-07T00:19:23.023Z,6.60
2017-11-07T00:21:50.582Z,6.60
2017-11-07T00:24:18.174Z,6.60
2017-11-07T00:26:46.495Z,6.60
2017-11-07T00:29:14.494Z,6.60
2017-11-07T00:31:42.046Z,6.50
2017-11-07T00:34:09.594Z,6.60
2017-11-07T00:36:37.200Z,6.50
2017-11-07T00:39:04.771Z,6.50
2017-11-07T00:41:33.125Z,6.60
2017-11-07T00:44:00.678Z,6.60
2017-11-07T00:46:28.311Z,6.60
2017-11-07T00:48:55.911Z,6.70
2017-11-07T00:51:23.514Z,6.70
2017-11-07T00:53:51.086Z,6.70
2017-11-07T00:56:18.634Z,6.70
2017-11-07T00:58:46.224Z,6.80
2017-11-07T01:01:13.778Z,6.70
2017-11-07T01:03:41.368Z,6.70
2017-11-07T01:06:09.690Z,6.70
2017-11-07T01:08:37.283Z,6.70
2017-11-07T01:11:04.836Z,6.60
2017-11-07T01:13:32.407Z,6.60
2017-11-07T01:16:00.011Z,6.70
2017-11-07T01:18:28.340Z,6.70
2017-11-07T01:20:55.930Z,6.60
2017-11-07T01:23:23.490Z,6.70
2017-11-07T01:25:51.101Z,6.70
2017-11-07T01:28:18.671Z,6.70
2017-11-07T01:30:46.303Z,6.50
2017-11-07T01:33:14.658Z,6.50
2017-11-07T01:35:42.262Z,6.50
2017-11-07T01:38:09.818Z,6.40
2017-11-07T01:40:38.138Z,6.60
2017-11-07T01:43:05.727Z,6.60
2017-11-07T01:45:33.287Z,6.60
2017-11-07T01:48:00.887Z,6.70
2017-11-07T01:50:28.451Z,6.50
2017-11-07T01:52:55.993Z,6.60
2017-11-07T01:55:23.597Z,6.60
2017-11-07T01:57:51.151Z,6.60
2017-11-07T02:00:18.703Z,6.60
2017-11-07T02:02:46.317Z,6.60
2017-11-07T02:05:13.931Z,6.60
2017-11-07T02:07:41.490Z,6.60
2017-11-07T02:10:09.051Z,6.60
2017-11-07T02:12:36.643Z,6.60
2017-11-07T02:15:04.201Z,6.60
2017-11-07T02:17:31.786Z,6.70
2017-11-07T02:20:00.104Z,6.80
2017-11-07T02:22:27.686Z,6.70
2017-11-07T02:24:55.255Z,6.70
2017-11-07T02:27:22.835Z,6.70
2017-11-07T02:29:50.377Z,6.70
2017-11-07T02:32:17.957Z,6.70
2017-11-07T02:34:46.313Z,6.70
2017-11-07T02:37:13.890Z,6.60
2017-11-07T02:39:41.444Z,6.70
2017-11-07T02:42:09.025Z,6.70
2017-11-07T02:44:37.406Z,6.70
2017-11-07T02:47:05.762Z,6.70
2017-11-07T02:49:33.320Z,6.70
2017-11-07T02:52:00.903Z,6.80
2017-11-07T02:54:29.222Z,6.80
2017-11-07T02:56:56.810Z,6.80
2017-11-07T02:59:24.360Z,6.80
2017-11-07T03:01:51.948Z,6.70
2017-11-07T03:04:19.493Z,6.80
2017-11-07T03:06:47.074Z,6.70
2017-11-07T03:09:14.673Z,6.70
2017-11-07T03:11:42.234Z,6.60
2017-11-07T03:14:09.795Z,6.60
2017-11-07T03:16:37.382Z,6.70
2017-11-07T03:19:04.971Z,6.70
2017-11-07T03:21:32.538Z,6.80
2017-11-07T03:24:00.142Z,6.80
2017-11-07T03:26:27.699Z,6.80
2017-11-07T03:28:55.284Z,6.90
2017-11-07T03:31:22.882Z,6.90
2017-11-07T03:33:50.425Z,6.90
2017-11-07T03:36:17.971Z,7.00
2017-11-07T03:38:45.565Z,7.10
2017-11-07T03:41:13.944Z,6.80
2017-11-07T03:43:42.278Z,6.90
2017-11-07T03:46:09.838Z,6.90
2017-11-07T03:48:37.430Z,6.90
2017-11-07T03:51:04.985Z,6.90
2017-11-07T03:53:32.579Z,6.90
2017-11-07T03:56:00.901Z,7.00
2017-11-07T03:58:28.515Z,6.90
2017-11-07T04:00:56.894Z,6.90
2017-11-07T04:03:25.215Z,6.90
2017-11-07T04:05:52.774Z,6.90
2017-11-07T04:08:20.374Z,6.80
2017-11-07T04:10:47.935Z,6.80
2017-11-07T04:13:15.492Z,6.80
2017-11-07T04:15:43.083Z,6.80
2017-11-07T04:18:11.403Z,6.90
2017-11-07T04:20:39.020Z,6.90
2017-11-07T04:23:07.342Z,6.90
2017-11-07T04:25:34.903Z,6.90
2017-11-07T04:28:02.509Z,7.10
2017-11-07T04:30:30.830Z,7.00
2017-11-07T04:32:58.390Z,7.00
2017-11-07T04:35:25.990Z,6.90
2017-11-07T04:37:53.543Z,7.00
2017-11-07T04:40:21.138Z,7.00
2017-11-07T04:42:49.463Z,6.90
2017-11-07T04:45:17.026Z,6.90
2017-11-07T04:47:44.614Z,6.90
2017-11-07T04:50:12.501Z,6.90
2017-11-07T04:52:40.118Z,7.00
2017-11-07T04:55:07.703Z,7.00
2017-11-07T04:57:35.310Z,7.00
2017-11-07T05:00:02.911Z,7.00
2017-11-07T05:02:30.466Z,7.00
2017-11-07T05:04:58.093Z,6.90
2017-11-07T05:07:25.678Z,7.00
2017-11-07T05:09:53.254Z,7.00
2017-11-07T05:12:20.882Z,7.00
2017-11-07T05:14:48.453Z,7.10
2017-11-07T05:17:16.056Z,7.10
2017-11-07T05:19:43.680Z,7.10
2017-11-07T05:22:11.290Z,7.00
2017-11-07T05:24:39.615Z,7.10
2017-11-07T05:27:07.174Z,7.00
2017-11-07T05:29:34.765Z,7.00
2017-11-07T05:32:02.334Z,7.10
2017-11-07T05:34:29.927Z,7.00
2017-11-07T05:36:57.516Z,7.10
2017-11-07T05:39:25.115Z,7.00
2017-11-07T05:41:53.294Z,7.00
2017-11-07T05:44:21.663Z,7.00
2017-11-07T05:46:49.236Z,7.00
2017-11-07T05:49:17.632Z,7.10
2017-11-07T05:51:45.966Z,7.10
2017-11-07T05:54:13.526Z,7.10
2017-11-07T05:56:41.127Z,7.10
2017-11-07T05:59:09.444Z,7.20
2017-11-07T06:01:37.049Z,7.20
2017-11-07T06:04:04.606Z,7.20
2017-11-07T06:06:32.165Z,7.20
2017-11-07T06:08:59.813Z,7.20
2017-11-07T06:11:27.433Z,7.20
2017-11-07T06:13:54.987Z,7.20
2017-11-07T06:16:22.561Z,7.20
2017-11-07T06:18:50.161Z,7.10
2017-11-07T06:21:17.713Z,7.20
2017-11-07T06:23:45.349Z,7.10
2017-11-07T06:26:12.919Z,7.20
2017-11-07T06:28:40.509Z,7.10
2017-11-07T06:31:08.108Z,7.10
2017-11-07T06:33:35.708Z,7.10
2017-11-07T06:36:03.272Z,7.00
2017-11-07T06:38:30.899Z,7.10
2017-11-07T06:40:58.460Z,7.10
2017-11-07T06:43:26.016Z,7.10
2017-11-07T06:45:53.606Z,7.10
2017-11-07T06:48:21.166Z,7.00
2017-11-07T06:50:48.774Z,7.00
2017-11-07T06:53:17.106Z,7.10
2017-11-07T06:55:44.663Z,7.10
2017-11-07T06:58:12.290Z,7.10
2017-11-07T07:00:40.618Z,7.10
2017-11-07T07:03:08.232Z,7.10
2017-11-07T07:05:35.809Z,7.10
2017-11-07T07:08:03.373Z,7.10
2017-11-07T07:10:30.957Z,7.20
2017-11-07T07:12:58.542Z,7.20
2017-11-07T07:15:26.106Z,7.20
2017-11-07T07:17:53.748Z,7.20
2017-11-07T07:20:21.354Z,7.20
2017-11-07T07:22:49.674Z,7.30
2017-11-07T07:25:17.278Z,7.30
2017-11-07T07:27:45.643Z,7.40
2017-11-07T07:30:13.215Z,7.30
2017-11-07T07:32:40.909Z,7.30
2017-11-07T07:35:08.562Z,7.40
2017-11-07T07:37:36.922Z,7.40
2017-11-07T07:40:04.530Z,7.40
2017-11-07T07:42:32.121Z,7.50
2017-11-07T07:44:59.740Z,7.50
2017-11-07T07:47:27.315Z,7.60
2017-11-07T07:49:54.869Z,7.50
2017-11-07T07:52:22.457Z,7.60
2017-11-07T07:54:50.050Z,7.50
2017-11-07T07:57:18.429Z,7.50
2017-11-07T08:00:08.974Z,7.50
2017-11-07T08:02:37.709Z,7.60
2017-11-07T08:05:06.046Z,7.60
2017-11-07T08:07:33.639Z,7.60
2017-11-07T08:10:01.235Z,7.70
2017-11-07T08:12:29.623Z,7.80
2017-11-07T08:14:57.178Z,7.80
2017-11-07T08:17:24.736Z,7.80
2017-11-07T08:19:53.102Z,7.80
2017-11-07T08:22:21.420Z,7.80
2017-11-07T08:25:12.608Z,7.80
2017-11-07T08:27:49.765Z,7.80
2017-11-07T08:30:39.188Z,7.80
2017-11-07T08:33:07.091Z,7.90
2017-11-07T08:35:34.654Z,7.90
2017-11-07T08:38:02.278Z,6.70
2017-11-07T08:40:29.871Z,8.00
2017-11-07T08:42:57.476Z,8.00
2017-11-07T08:45:25.807Z,8.10
2017-11-07T08:47:53.396Z,8.00
2017-11-07T08:50:22.047Z,8.10
2017-11-07T08:52:49.618Z,8.10
2017-11-07T08:55:17.235Z,8.10
2017-11-07T08:57:44.872Z,8.10
2017-11-07T09:00:13.223Z,8.10
2017-11-07T09:02:40.814Z,8.10
2017-11-07T09:05:09.321Z,8.10
2017-11-07T09:07:36.976Z,8.10
2017-11-07T09:10:04.539Z,8.10
2017-11-07T09:12:32.181Z,8.20
2017-11-07T09:14:59.870Z,8.20
2017-11-07T09:17:27.450Z,8.20
2017-11-07T09:19:55.085Z,8.30
2017-11-07T09:22:22.671Z,8.40
2017-11-07T09:24:50.789Z,8.30
2017-11-07T09:27:18.386Z,8.40
2017-11-07T09:29:45.978Z,8.40
2017-11-07T09:32:13.776Z,8.50
2017-11-07T09:34:41.366Z,8.50
2017-11-07T09:37:08.922Z,8.60
2017-11-07T09:39:36.522Z,8.70
2017-11-07T09:42:04.077Z,8.90
2017-11-07T09:44:31.635Z,8.90
2017-11-07T09:46:59.281Z,8.80
2017-11-07T09:49:27.171Z,8.80
2017-11-07T09:51:54.949Z,9.10
2017-11-07T09:54:24.506Z,9.30
2017-11-07T09:56:52.907Z,9.60
2017-11-07T09:59:20.510Z,9.50
2017-11-07T10:01:48.085Z,9.60
2017-11-07T10:04:15.799Z,9.60
2017-11-07T10:06:43.432Z,9.60
2017-11-07T10:09:11.038Z,9.70
2017-11-07T10:11:38.843Z,9.80
2017-11-07T10:14:07.224Z,9.80
2017-11-07T10:16:35.774Z,9.90
2017-11-07T10:19:03.378Z,9.90
2017-11-07T10:21:31.798Z,9.90
2017-11-07T10:23:59.401Z,9.90
2017-11-07T10:26:27.076Z,10.00
2017-11-07T10:28:54.671Z,9.90
2017-11-07T10:31:22.312Z,10.00
2017-11-07T10:33:50.658Z,9.80
2017-11-07T10:36:19.077Z,9.90
2017-11-07T10:38:46.666Z,9.90
2017-11-07T10:41:14.309Z,9.90
2017-11-07T10:43:41.924Z,9.90
2017-11-07T10:46:09.979Z,9.90
2017-11-07T10:48:38.048Z,10.00
2017-11-07T10:51:06.085Z,10.10
2017-11-07T10:53:36.765Z,12.10
2017-11-07T10:56:04.738Z,10.00
2017-11-07T10:58:33.367Z,10.20
2017-11-07T11:01:02.253Z,10.20
2017-11-07T11:03:30.257Z,10.20
2017-11-07T11:05:59.037Z,10.10
2017-11-07T11:08:27.471Z,10.10
2017-11-07T11:10:56.127Z,10.10
2017-11-07T11:13:23.812Z,10.00
2017-11-07T11:15:52.262Z,10.00
2017-11-07T11:18:20.124Z,10.00
2017-11-07T11:20:47.706Z,10.00
2017-11-07T11:23:15.301Z,9.80
2017-11-07T11:25:43.631Z,9.80
2017-11-07T11:28:11.236Z,9.80
2017-11-07T11:30:39.558Z,9.80
2017-11-07T11:33:07.174Z,9.80
2017-11-07T11:35:35.805Z,9.80
2017-11-07T11:38:04.208Z,9.70
2017-11-07T11:40:31.881Z,9.80
2017-11-07T11:43:00.130Z,9.90
2017-11-07T11:45:27.777Z,9.90
2017-11-07T11:47:55.349Z,12.70
2017-11-07T11:50:22.977Z,9.80
2017-11-07T11:52:51.325Z,9.80
2017-11-07T11:55:18.908Z,9.80
2017-11-07T11:57:47.318Z,9.90
2017-11-07T12:00:15.012Z,9.90
2017-11-07T12:02:42.582Z,10.00
2017-11-07T12:05:10.197Z,9.90
2017-11-07T12:07:38.076Z,10.00
2017-11-07T12:10:05.672Z,10.00
2017-11-07T12:12:33.293Z,10.10
2017-11-07T12:15:01.410Z,10.10
2017-11-07T12:17:30.274Z,10.10
2017-11-07T12:19:57.958Z,10.10
2017-11-07T12:22:26.350Z,10.10
2017-11-07T12:24:54.864Z,10.10
2017-11-07T12:27:22.485Z,10.10
2017-11-07T12:29:50.050Z,10.10
2017-11-07T12:32:17.726Z,10.00
2017-11-07T12:34:45.322Z,10.10
2017-11-07T12:37:12.934Z,10.00
2017-11-07T12:39:40.503Z,10.10
2017-11-07T12:42:08.924Z,10.00
2017-11-07T12:44:36.485Z,10.00
2017-11-07T12:47:04.089Z,10.00
2017-11-07T12:49:31.752Z,10.00
2017-11-07T12:52:00.203Z,10.10
2017-11-07T12:54:27.790Z,10.00
2017-11-07T12:56:55.398Z,10.00
2017-11-07T12:59:22.958Z,10.10
2017-11-07T13:01:51.354Z,10.00
2017-11-07T13:04:18.958Z,10.00
2017-11-07T13:06:46.609Z,9.90
2017-11-07T13:09:14.343Z,9.90
2017-11-07T13:11:41.946Z,9.90
2017-11-07T13:14:09.558Z,9.90
2017-11-07T13:16:37.284Z,9.90
2017-11-07T13:19:05.684Z,9.90
2017-11-07T13:21:34.021Z,9.90
2017-11-07T13:24:01.583Z,9.90
2017-11-07T13:26:29.345Z,9.90
2017-11-07T13:28:57.757Z,9.90
2017-11-07T13:31:25.372Z,9.90
2017-11-07T13:33:54.046Z,9.90
2017-11-07T13:36:21.609Z,10.00
2017-11-07T13:38:49.247Z,9.90
2017-11-07T13:41:17.590Z,9.90
2017-11-07T13:43:45.261Z,9.80
2017-11-07T13:46:12.834Z,9.80
2017-11-07T13:48:41.259Z,9.80
2017-11-07T13:51:08.825Z,9.80
2017-11-07T13:53:36.422Z,9.80
2017-11-07T13:56:04.527Z,9.80
2017-11-07T13:58:32.166Z,9.80
2017-11-07T14:01:18.842Z,9.90
2017-11-07T14:03:48.523Z,9.90
2017-11-07T14:06:16.160Z,9.90
2017-11-07T14:08:44.510Z,9.90
2017-11-07T14:11:12.399Z,9.90
2017-11-07T14:13:40.779Z,9.80
2017-11-07T14:16:09.183Z,9.60
2017-11-07T14:18:36.867Z,9.60
2017-11-07T14:21:04.503Z,9.70
2017-11-07T14:23:32.757Z,9.70
2017-11-07T14:26:01.094Z,9.70
2017-11-07T14:28:28.741Z,9.70
2017-11-07T14:30:56.313Z,9.70
2017-11-07T14:33:23.942Z,9.80
2017-11-07T14:35:51.570Z,9.70
2017-11-07T14:38:19.919Z,9.70
2017-11-07T14:40:47.507Z,9.70
2017-11-07T14:43:15.138Z,9.80
2017-11-07T14:45:42.701Z,9.90
2017-11-07T14:48:10.319Z,9.90
2017-11-07T14:50:38.819Z,9.80
2017-11-07T14:53:06.546Z,9.80
2017-11-07T14:55:47.760Z,9.80
2017-11-07T14:58:36.602Z,9.90
2017-11-07T15:01:06.794Z,9.90
2017-11-07T15:03:34.562Z,9.80
2017-11-07T15:06:02.294Z,9.80
2017-11-07T15:08:29.960Z,9.80
2017-11-07T15:10:57.674Z,9.70
2017-11-07T15:13:26.105Z,9.70
2017-11-07T15:15:53.737Z,9.60
2017-11-07T15:18:21.379Z,9.70
2017-11-07T15:20:48.958Z,9.70
2017-11-07T15:23:16.687Z,9.70
2017-11-07T15:25:44.326Z,9.70
2017-11-07T15:28:12.817Z,9.70
2017-11-07T15:30:41.129Z,9.80
2017-11-07T15:33:09.574Z,9.60
2017-11-07T15:35:37.302Z,9.60
2017-11-07T15:38:04.865Z,9.60
2017-11-07T15:40:32.482Z,9.60
2017-11-07T15:43:00.291Z,9.60
2017-11-07T15:45:27.881Z,9.60
2017-11-07T15:47:56.116Z,9.70
2017-11-07T15:50:23.763Z,9.70
2017-11-07T15:52:52.098Z,9.60
2017-11-07T15:55:19.658Z,9.60
2017-11-07T15:57:47.257Z,9.60
2017-11-07T16:00:15.663Z,9.60
2017-11-07T16:02:43.310Z,9.60
2017-11-07T16:05:11.878Z,9.70
2017-11-07T16:07:40.210Z,9.60
2017-11-07T16:10:07.770Z,9.60
2017-11-07T16:12:41.071Z,9.60
2017-11-07T16:15:10.117Z,9.60
2017-11-07T16:17:38.607Z,9.70
2017-11-07T16:20:06.221Z,9.70
2017-11-07T16:22:33.788Z,9.80
2017-11-07T16:25:01.410Z,9.70
2017-11-07T16:27:29.011Z,9.80
2017-11-07T16:29:56.606Z,9.70
2017-11-07T16:32:24.985Z,9.80
2017-11-07T16:34:53.362Z,9.70
2017-11-07T16:37:21.696Z,9.60
2017-11-07T16:39:49.249Z,9.60
2017-11-07T16:42:16.837Z,9.70
2017-11-07T16:44:44.437Z,9.70
2017-11-07T16:47:12.022Z,9.60
2017-11-07T16:49:40.351Z,9.50
2017-11-07T16:52:08.714Z,9.60
2017-11-07T16:54:36.269Z,9.50
2017-11-07T16:57:03.880Z,9.60
2017-11-07T16:59:31.473Z,9.60
2017-11-07T17:01:59.165Z,9.60
2017-11-07T17:04:27.510Z,9.60
2017-11-07T17:06:55.077Z,9.60
2017-11-07T17:09:23.951Z,9.60
2017-11-07T17:11:54.210Z,9.50
2017-11-07T17:14:23.458Z,9.50
2017-11-07T17:16:53.097Z,9.50
2017-11-07T17:19:23.262Z,9.50
2017-11-07T17:21:55.640Z,9.60
2017-11-07T17:24:25.998Z,9.50
2017-11-07T17:26:56.297Z,9.50
2017-11-07T17:29:27.735Z,9.50
2017-11-07T17:31:59.310Z,9.50
2017-11-07T17:34:31.911Z,9.50
2017-11-07T17:37:03.573Z,9.50
2017-11-07T17:39:33.034Z,9.50
2017-11-07T17:42:02.965Z,9.40
2017-11-07T17:44:33.301Z,9.40
2017-11-07T17:47:02.584Z,9.40
2017-11-07T17:49:32.993Z,9.40
2017-11-07T17:52:02.167Z,9.40
2017-11-07T17:54:32.660Z,9.40
2017-11-07T17:57:03.435Z,9.40
2017-11-07T17:59:32.829Z,9.40
2017-11-07T18:02:02.622Z,9.40
2017-11-07T18:04:35.813Z,9.40
2017-11-07T18:07:05.493Z,9.30
2017-11-07T18:09:36.069Z,9.40
2017-11-07T18:12:05.976Z,9.30
2017-11-07T18:14:37.328Z,9.40
2017-11-07T18:17:11.555Z,9.30
2017-11-07T18:19:41.096Z,9.40
2017-11-07T18:22:10.910Z,9.30
2017-11-07T18:24:41.244Z,9.20
2017-11-07T18:27:21.261Z,9.10
2017-11-07T18:29:51.059Z,9.10
2017-11-07T18:32:20.906Z,9.10
2017-11-07T18:34:52.551Z,9.20
2017-11-07T18:37:22.278Z,9.20
2017-11-07T18:39:51.826Z,9.30
2017-11-07T18:42:21.618Z,9.20
2017-11-07T18:44:51.443Z,9.20
2017-11-07T18:47:21.129Z,9.10
2017-11-07T18:49:52.596Z,9.20
2017-11-07T18:52:22.692Z,9.20
2017-11-07T18:54:53.492Z,9.20
2017-11-07T18:57:31.220Z,9.20
2017-11-07T19:00:01.113Z,9.20
2017-11-07T19:02:30.789Z,9.30
2017-11-07T19:05:00.926Z,9.30
2017-11-07T19:07:30.858Z,9.20
2017-11-07T19:10:08.216Z,9.20
2017-11-07T19:12:42.914Z,9.20
2017-11-07T19:15:14.594Z,9.20
2017-11-07T19:17:44.252Z,9.20
2017-11-07T19:20:14.587Z,9.20
2017-11-07T19:22:51.613Z,9.20
2017-11-07T19:25:21.302Z,9.10
2017-11-07T19:27:51.773Z,9.10
2017-11-07T19:30:21.310Z,9.10
2017-11-07T19:32:51.083Z,9.10
2017-11-07T19:35:20.844Z,9.10
2017-11-07T19:37:50.669Z,9.20
2017-11-07T19:40:21.315Z,9.20
2017-11-07T19:42:51.611Z,9.20
2017-11-07T19:45:21.584Z,9.10
2017-11-07T19:47:51.288Z,9.10
2017-11-07T19:50:20.720Z,9.10
2017-11-07T19:52:51.362Z,9.10
2017-11-07T19:55:20.717Z,9.10
2017-11-07T19:57:50.886Z,9.20
2017-11-07T20:00:20.656Z,9.20
2017-11-07T20:02:50.376Z,9.20
2017-11-07T20:05:20.292Z,9.20
2017-11-07T20:07:52.085Z,9.20
2017-11-07T20:10:22.144Z,9.20
2017-11-07T20:12:51.542Z,9.20
2017-11-07T20:15:22.953Z,9.20
2017-11-07T20:17:52.396Z,9.20
2017-11-07T20:20:22.649Z,9.20
2017-11-07T20:22:52.608Z,9.20
2017-11-07T20:25:22.260Z,9.20
2017-11-07T20:27:51.597Z,9.20
2017-11-07T20:30:21.332Z,9.30
2017-11-07T20:32:51.056Z,9.30
2017-11-07T20:35:21.643Z,9.20
2017-11-07T20:37:51.208Z,9.20
2017-11-07T20:40:21.633Z,9.20
2017-11-07T20:42:51.046Z,9.30
2017-11-07T20:45:20.461Z,9.20
2017-11-07T20:47:48.875Z,9.30
2017-11-07T20:50:18.243Z,9.20
2017-11-07T20:52:47.252Z,9.20
2017-11-07T20:55:16.182Z,9.10
2017-11-07T20:57:43.767Z,9.10
2017-11-07T21:00:12.151Z,9.20
2017-11-07T21:02:40.471Z,9.20
2017-11-07T21:05:10.301Z,9.10
2017-11-07T21:07:37.893Z,9.10
2017-11-07T21:10:06.317Z,9.10
2017-11-07T21:12:33.881Z,9.10
2017-11-07T21:15:01.450Z,9.10
2017-11-07T21:17:29.071Z,9.10
2017-11-07T21:19:57.403Z,9.20
2017-11-07T21:22:24.968Z,9.20
2017-11-07T21:24:52.564Z,9.20
2017-11-07T21:27:20.925Z,9.20
2017-11-07T21:29:48.510Z,9.20
2017-11-07T21:32:16.886Z,9.10
2017-11-07T21:34:47.145Z,9.10
2017-11-07T21:37:14.705Z,9.10
2017-11-07T21:39:42.306Z,9.10
2017-11-07T21:42:09.861Z,9.10
2017-11-07T21:44:37.429Z,9.10
2017-11-07T21:47:05.023Z,9.00
2017-11-07T21:49:32.645Z,9.10
2017-11-07T21:52:00.198Z,9.10
2017-11-07T21:54:27.805Z,9.10
2017-11-07T21:56:55.429Z,9.20
2017-11-07T21:59:22.979Z,9.20
2017-11-07T22:01:50.583Z,9.20
2017-11-07T22:04:18.934Z,9.20
2017-11-07T22:06:46.532Z,9.20
2017-11-07T22:09:14.129Z,9.20
2017-11-07T22:11:41.734Z,9.20
2017-11-07T22:14:10.075Z,9.20
2017-11-07T22:16:53.490Z,9.20
2017-11-07T22:19:21.054Z,9.20
2017-11-07T22:21:49.511Z,9.10
2017-11-07T22:24:17.099Z,9.10
2017-11-07T22:26:44.685Z,9.10
2017-11-07T22:29:12.305Z,9.20
2017-11-07T22:31:39.860Z,9.10
2017-11-07T22:34:07.410Z,9.10
2017-11-07T22:36:35.010Z,9.10
2017-11-07T22:39:02.570Z,9.10
2017-11-07T22:41:30.178Z,9.10
2017-11-07T22:43:58.513Z,9.10
2017-11-07T22:46:26.070Z,9.10
2017-11-07T22:48:54.450Z,9.10
2017-11-07T22:51:22.042Z,9.10
2017-11-07T22:53:50.383Z,9.20
2017-11-07T22:56:17.969Z,9.20
2017-11-07T22:58:45.535Z,9.20
2017-11-07T23:01:13.142Z,9.20
2017-11-07T23:03:40.725Z,9.10
2017-11-07T23:06:08.339Z,9.10
2017-11-07T23:08:36.664Z,9.10
2017-11-07T23:11:04.214Z,9.10
2017-11-07T23:13:31.798Z,9.10
2017-11-07T23:15:59.361Z,9.10
2017-11-07T23:18:26.962Z,9.10
2017-11-07T23:20:55.346Z,9.10
2017-11-07T23:23:22.907Z,9.10
2017-11-07T23:25:50.466Z,9.10
2017-11-07T23:28:18.061Z,9.10
2017-11-07T23:30:46.400Z,9.10
2017-11-07T23:33:14.748Z,10.80
2017-11-07T23:35:42.343Z,9.00
2017-11-07T23:38:10.658Z,8.90
2017-11-07T23:40:38.250Z,8.90
2017-11-07T23:43:05.820Z,8.90
2017-11-07T23:45:33.399Z,8.90
2017-11-07T23:48:01.022Z,8.90
2017-11-07T23:50:28.619Z,9.00
2017-11-07T23:52:56.979Z,9.00
2017-11-07T23:55:24.529Z,8.90
2017-11-07T23:57:52.148Z,9.00
